Time;durP1;ratioP1;P1;durP2;ratioP2;P2;SDS_P1;SDS_P2;PMS_P1;PMS_P2;Temp;Humidity;BMP_temperature;BMP_pressure;BME280_temperature;BME280_humidity;BME280_pressure;Samples;Min_cycle;Max_cycle;Signal;HPM_P1;HPM_P2
2021/05/08 00:01:56;;;;;;;;;;;;;;;10.50;53.29;101352.44;5033782;28;98877;-78
2021/05/08 00:04:22;;;;;;;;;;;;;;;10.66;52.91;101355.56;5034334;27;97313;-78
2021/05/08 00:06:48;;;;;;;;;;;;;;;10.64;53.11;101357.38;5035923;27;97108;-78
2021/05/08 00:09:14;;;;;;;;;;;;;;;10.62;52.32;101359.22;5034516;27;98970;-78
2021/05/08 00:11:40;;;;;;;;;;;;;;;10.76;52.77;101357.94;5035333;27;98755;-78
2021/05/08 00:14:07;;;;;;;;;;;;;;;10.75;52.75;101350.94;5034085;27;97875;-78
2021/05/08 00:16:33;;;;;;;;;;;;;;;10.82;52.65;101351.63;5037607;27;97089;-78
2021/05/08 00:18:59;;;;;;;;;;;;;;;10.84;52.35;101356.84;5037949;27;99327;-77
2021/05/08 00:21:25;;;;;;;;;;;;;;;10.73;52.47;101363.31;5035901;27;98814;-77
2021/05/08 00:23:51;;;;;;;;;;;;;;;10.52;53.52;101369.16;5034688;27;96838;-77
2021/05/08 00:26:16;;;;;;;;;;;;;;;10.76;52.66;101371.16;5036390;27;97520;-77
2021/05/08 00:28:42;;;;;;;;;;;;;;;10.53;53.33;101368.25;5032392;27;98243;-76
2021/05/08 00:31:09;;;;;;;;;;;;;;;10.54;52.72;101367.34;5032863;27;98899;-78
2021/05/08 00:33:35;;;;;;;;;;;;;;;10.56;53.06;101362.91;5034596;27;99104;-77
2021/05/08 00:36:00;;;;;;;;;;;;;;;10.67;52.37;101363.47;5036636;27;96981;-77
2021/05/08 00:38:26;;;;;;;;;;;;;;;10.73;52.22;101368.59;5034449;27;101555;-77
2021/05/08 00:40:52;;;;;;;;;;;;;;;10.65;52.60;101369.69;5034999;27;98099;-77
2021/05/08 00:43:18;;;;;;;;;;;;;;;10.56;52.92;101376.09;5031926;27;97255;-77
2021/05/08 00:45:44;;;;;;;;;;;;;;;10.62;52.96;101375.94;5035024;27;96914;-77
2021/05/08 00:48:12;;;;;;;;;;;;;;;10.69;52.47;101366.94;5035496;27;99467;-77
2021/05/08 00:50:38;;;;;;;;;;;;;;;10.64;52.45;101357.38;5035681;27;98828;-77
2021/05/08 00:53:06;;;;;;;;;;;;;;;10.62;52.17;101360.09;5034433;27;96919;-76
2021/05/08 00:55:32;;;;;;;;;;;;;;;10.72;52.36;101358.94;5034629;27;97219;-77
2021/05/08 00:57:59;;;;;;;;;;;;;;;10.37;53.60;101369.56;5031518;27;99205;-76
2021/05/08 01:00:25;;;;;;;;;;;;;;;10.62;53.21;101365.38;5032093;27;99133;-76
2021/05/08 01:02:51;;;;;;;;;;;;;;;10.52;53.22;101368.28;5029967;28;96888;-77
2021/05/08 01:05:18;;;;;;;;;;;;;;;10.41;53.28;101370.31;5033846;27;96995;-77
2021/05/08 01:07:44;;;;;;;;;;;;;;;10.47;53.56;101375.47;5035873;27;99016;-77
2021/05/08 01:10:11;;;;;;;;;;;;;;;10.43;53.37;101373.81;5035564;27;99194;-77
2021/05/08 01:12:37;;;;;;;;;;;;;;;10.35;53.67;101371.34;5037252;28;96910;-78
2021/05/08 01:15:03;;;;;;;;;;;;;;;10.25;54.19;101381.25;5038249;27;97141;-77
2021/05/08 01:17:29;;;;;;;;;;;;;;;10.03;54.42;101376.50;5042098;27;99031;-77
2021/05/08 01:19:55;;;;;;;;;;;;;;;10.09;54.41;101376.34;5040269;27;98019;-78
2021/05/08 01:22:22;;;;;;;;;;;;;;;10.31;53.91;101374.94;5036155;27;96863;-78
2021/05/08 01:24:48;;;;;;;;;;;;;;;10.27;53.99;101374.19;5038622;27;97121;-78
2021/05/08 01:27:13;;;;;;;;;;;;;;;10.18;53.71;101376.16;5033328;27;99253;-78
2021/05/08 01:29:39;;;;;;;;;;;;;;;10.27;53.38;101378.59;5032459;27;99136;-78
2021/05/08 01:32:06;;;;;;;;;;;;;;;10.10;54.41;101370.19;5036785;27;96859;-79
2021/05/08 01:34:31;;;;;;;;;;;;;;;10.07;54.04;101380.78;5033949;27;97206;-78
2021/05/08 01:36:58;;;;;;;;;;;;;;;10.29;53.60;101380.31;5033915;27;99433;-77
2021/05/08 01:39:24;;;;;;;;;;;;;;;10.15;53.93;101381.50;5035562;27;99574;-78
2021/05/08 01:41:50;;;;;;;;;;;;;;;10.19;54.19;101377.91;5034317;27;96926;-78
2021/05/08 01:44:16;;;;;;;;;;;;;;;10.24;53.32;101383.97;5037216;27;97040;-78
2021/05/08 01:46:41;;;;;;;;;;;;;;;10.05;54.23;101385.22;5035630;27;98407;-78
2021/05/08 01:49:07;;;;;;;;;;;;;;;10.11;54.17;101385.97;5038847;28;97342;-78
2021/05/08 01:51:33;;;;;;;;;;;;;;;10.11;53.99;101383.31;5034676;27;97124;-78
2021/05/08 01:53:59;;;;;;;;;;;;;;;9.93;54.64;101389.03;5034108;27;96941;-78
2021/05/08 01:56:25;;;;;;;;;;;;;;;10.13;53.91;101394.72;5034932;27;99211;-77
2021/05/08 01:58:51;;;;;;;;;;;;;;;10.19;53.48;101385.81;5028832;27;98634;-78
2021/05/08 02:01:17;;;;;;;;;;;;;;;10.20;53.75;101387.56;5034350;27;97322;-77
2021/05/08 02:03:43;;;;;;;;;;;;;;;10.07;53.78;101394.00;5032517;27;97133;-77
2021/05/08 02:06:08;;;;;;;;;;;;;;;10.11;53.86;101388.59;5034726;27;99374;-77
2021/05/08 02:08:34;;;;;;;;;;;;;;;10.06;54.03;101397.53;5029806;27;99036;-76
2021/05/08 02:11:09;;;;;;;;;;;;;;;9.93;54.54;101399.59;5035547;27;96914;-77
2021/05/08 02:13:37;;;;;;;;;;;;;;;10.10;54.10;101392.16;5025600;27;99142;-77
2021/05/08 02:16:02;;;;;;;;;;;;;;;10.06;53.79;101395.78;5033381;27;99087;-79
2021/05/08 02:18:28;;;;;;;;;;;;;;;9.96;54.11;101395.13;5028730;27;97747;-77
2021/05/08 02:20:54;;;;;;;;;;;;;;;9.93;53.91;101397.81;5033871;27;96850;-78
2021/05/08 02:23:20;;;;;;;;;;;;;;;9.92;53.87;101393.44;5030011;27;97116;-77
2021/05/08 02:25:46;;;;;;;;;;;;;;;9.74;53.77;101398.25;5033023;27;98839;-77
2021/05/08 02:28:11;;;;;;;;;;;;;;;9.41;54.84;101390.16;5032239;27;98819;-78
2021/05/08 02:30:39;;;;;;;;;;;;;;;9.46;54.21;101387.41;5033289;27;98696;-78
2021/05/08 02:33:05;;;;;;;;;;;;;;;9.55;54.11;101392.50;5032546;27;99493;-77
2021/05/08 02:35:31;;;;;;;;;;;;;;;9.65;53.81;101390.56;5033139;27;98972;-78
2021/05/08 02:37:57;;;;;;;;;;;;;;;9.77;53.93;101399.09;5032279;27;99330;-78
2021/05/08 02:40:24;;;;;;;;;;;;;;;9.43;54.14;101390.13;5034691;28;96723;-77
2021/05/08 02:42:50;;;;;;;;;;;;;;;9.41;54.62;101398.06;5035194;27;97174;-77
2021/05/08 02:45:16;;;;;;;;;;;;;;;9.44;54.54;101395.38;5035353;27;99066;-78
2021/05/08 02:47:44;;;;;;;;;;;;;;;9.58;53.96;101392.47;5039661;27;99112;-77
2021/05/08 02:50:10;;;;;;;;;;;;;;;9.83;53.25;101400.72;5037300;28;97136;-78
2021/05/08 02:52:36;;;;;;;;;;;;;;;10.16;52.44;101393.78;5036859;27;96811;-78
2021/05/08 02:55:03;;;;;;;;;;;;;;;9.96;52.57;101395.13;5037339;27;98250;-79
2021/05/08 02:57:28;;;;;;;;;;;;;;;9.66;53.37;101400.19;5034715;27;98827;-78
2021/05/08 02:59:54;;;;;;;;;;;;;;;9.96;52.81;101396.91;5036817;27;96881;-78
2021/05/08 03:02:20;;;;;;;;;;;;;;;9.95;52.95;101396.03;5036540;27;100022;-78
2021/05/08 03:04:46;;;;;;;;;;;;;;;9.68;53.70;101399.25;5036220;27;99519;-78
2021/05/08 03:07:12;;;;;;;;;;;;;;;9.78;53.23;101408.72;5037275;28;98187;-78
2021/05/08 03:09:38;;;;;;;;;;;;;;;9.77;53.42;101406.13;5036290;27;96821;-78
2021/05/08 03:12:05;;;;;;;;;;;;;;;9.74;53.05;101404.41;5035777;27;97525;-78
2021/05/08 03:14:31;;;;;;;;;;;;;;;9.91;52.89;101411.97;5033881;27;99586;-78
2021/05/08 03:16:57;;;;;;;;;;;;;;;9.92;52.71;101414.56;5051129;28;98994;-77
2021/05/08 03:19:23;;;;;;;;;;;;;;;9.58;53.69;101411.78;5067689;27;96768;-78
2021/05/08 03:21:49;;;;;;;;;;;;;;;9.94;52.78;101409.25;5056264;28;96943;-78
2021/05/08 03:24:15;;;;;;;;;;;;;;;9.92;52.82;101414.56;5058776;27;97866;-78
2021/05/08 03:26:41;;;;;;;;;;;;;;;9.93;52.63;101416.31;5057224;27;100761;-78
2021/05/08 03:29:07;;;;;;;;;;;;;;;9.94;52.22;101417.16;5056444;27;96884;-78
2021/05/08 03:31:33;;;;;;;;;;;;;;;9.82;52.53;101412.16;5056868;27;97270;-78
2021/05/08 03:33:59;;;;;;;;;;;;;;;9.78;52.62;101416.63;5056022;27;97859;-78
2021/05/08 03:36:25;;;;;;;;;;;;;;;9.86;52.70;101427.03;5056784;27;98023;-78
2021/05/08 03:38:51;;;;;;;;;;;;;;;9.82;52.59;101423.59;5053954;27;96858;-77
2021/05/08 03:41:17;;;;;;;;;;;;;;;9.70;53.18;101423.88;5046883;27;98010;-78
2021/05/08 03:43:43;;;;;;;;;;;;;;;9.60;53.44;101430.22;5037221;27;98967;-78
2021/05/08 03:46:09;;;;;;;;;;;;;;;9.53;53.44;101431.25;5041003;27;98950;-77
2021/05/08 03:48:38;;;;;;;;;;;;;;;9.60;52.85;101424.94;5040094;27;96688;-78
2021/05/08 03:51:04;;;;;;;;;;;;;;;9.56;52.95;101432.06;5041468;27;96923;-78
2021/05/08 03:53:29;;;;;;;;;;;;;;;9.74;53.17;101437.84;5038077;27;98972;-78
2021/05/08 03:55:56;;;;;;;;;;;;;;;9.77;53.06;101438.66;5035323;27;98804;-78
2021/05/08 03:58:25;;;;;;;;;;;;;;;9.80;52.87;101435.06;5037566;28;96896;-78
2021/05/08 04:00:51;;;;;;;;;;;;;;;10.05;52.21;101440.69;5036189;27;97015;-78
2021/05/08 04:03:17;;;;;;;;;;;;;;;10.08;51.76;101436.22;5034459;27;99330;-78
2021/05/08 04:05:43;;;;;;;;;;;;;;;10.06;52.10;101445.06;5035240;28;98906;-78
2021/05/08 04:08:09;;;;;;;;;;;;;;;10.21;51.78;101448.28;5035733;27;98516;-78
2021/05/08 04:10:35;;;;;;;;;;;;;;;10.28;51.67;101449.00;5036497;28;97007;-78
2021/05/08 04:13:02;;;;;;;;;;;;;;;10.33;51.28;101458.56;5035282;28;98938;-78
2021/05/08 04:15:29;;;;;;;;;;;;;;;10.59;50.68;101455.28;5034583;27;98798;-78
2021/05/08 04:17:55;;;;;;;;;;;;;;;10.48;50.90;101453.81;5035553;27;96818;-78
2021/05/08 04:20:21;;;;;;;;;;;;;;;10.77;50.05;101460.13;5034770;27;96812;-79
2021/05/08 04:22:46;;;;;;;;;;;;;;;10.71;50.03;101457.63;5034629;27;99955;-79
2021/05/08 04:25:12;;;;;;;;;;;;;;;10.65;50.65;101459.56;5037322;27;99146;-79
2021/05/08 04:27:38;;;;;;;;;;;;;;;10.63;50.61;101464.88;5033385;27;96651;-78
2021/05/08 04:30:06;;;;;;;;;;;;;;;10.94;49.54;101462.34;5033990;28;97312;-78
2021/05/08 04:32:32;;;;;;;;;;;;;;;10.83;49.71;101463.53;5036223;27;99314;-78
2021/05/08 04:34:57;;;;;;;;;;;;;;;10.97;49.10;101453.44;5036035;27;99252;-78
2021/05/08 04:37:23;;;;;;;;;;;;;;;10.78;49.99;101461.00;5035709;27;97679;-79
2021/05/08 04:39:49;;;;;;;;;;;;;;;10.87;49.86;101457.25;5038343;27;96883;-79
2021/05/08 04:42:15;;;;;;;;;;;;;;;10.78;49.49;101468.91;5039486;28;98966;-79
2021/05/08 04:44:40;;;;;;;;;;;;;;;11.16;48.98;101467.94;5033965;27;99169;-78
2021/05/08 04:47:12;;;;;;;;;;;;;;;11.55;48.30;101468.66;5041313;28;96789;-77
2021/05/08 04:49:38;;;;;;;;;;;;;;;11.51;47.97;101470.50;5039321;27;97561;-78
2021/05/08 04:52:04;;;;;;;;;;;;;;;11.08;48.58;101475.22;5040518;27;98915;-79
2021/05/08 04:54:30;;;;;;;;;;;;;;;11.07;48.77;101473.47;5035660;28;98828;-78
2021/05/08 04:56:56;;;;;;;;;;;;;;;11.42;47.98;101476.03;5039370;27;96786;-79
2021/05/08 04:59:22;;;;;;;;;;;;;;;11.38;48.58;101473.53;5035655;27;97169;-78
2021/05/08 05:01:47;;;;;;;;;;;;;;;11.28;48.76;101478.22;5035216;27;99335;-79
2021/05/08 05:04:14;;;;;;;;;;;;;;;11.22;48.28;101483.69;5036232;28;98037;-79
2021/05/08 05:06:40;;;;;;;;;;;;;;;11.34;48.30;101474.53;5030313;27;97063;-78
2021/05/08 05:09:06;;;;;;;;;;;;;;;11.32;48.22;101473.69;5034635;27;97350;-78
2021/05/08 05:11:32;;;;;;;;;;;;;;;11.64;47.62;101480.75;5035554;28;98064;-78
2021/05/08 05:13:58;;;;;;;;;;;;;;;11.60;47.91;101485.28;5035232;27;99157;-79
2021/05/08 05:16:23;;;;;;;;;;;;;;;11.49;48.07;101489.97;5036753;27;96738;-78
2021/05/08 05:18:49;;;;;;;;;;;;;;;11.38;47.97;101490.28;5046907;27;96797;-78
2021/05/08 05:21:17;;;;;;;;;;;;;;;11.71;47.14;101487.59;5042126;27;99128;-78
2021/05/08 05:23:43;;;;;;;;;;;;;;;12.46;46.01;101480.97;5046094;28;98105;-79
2021/05/08 05:26:08;;;;;;;;;;;;;;;12.07;46.19;101489.22;5052194;27;96901;-78
2021/05/08 05:28:34;;;;;;;;;;;;;;;11.78;46.94;101487.44;5048880;27;96827;-78
2021/05/08 05:31:00;;;;;;;;;;;;;;;12.07;46.37;101493.66;5049737;28;99166;-78
2021/05/08 05:33:26;;;;;;;;;;;;;;;12.10;46.91;101493.56;5055448;27;97782;-76
2021/05/08 05:35:53;;;;;;;;;;;;;;;11.93;46.83;101497.59;5057370;27;96410;-77
2021/05/08 05:38:20;;;;;;;;;;;;;;;11.99;46.55;101499.19;5054508;27;96663;-78
2021/05/08 05:40:46;;;;;;;;;;;;;;;12.22;46.08;101502.00;5053264;27;98981;-77
2021/05/08 05:43:12;;;;;;;;;;;;;;;12.75;44.78;101510.06;5039435;28;98886;-77
2021/05/08 05:45:38;;;;;;;;;;;;;;;13.04;44.22;101512.63;5040575;27;97094;-78
2021/05/08 05:48:04;;;;;;;;;;;;;;;13.25;43.16;101512.84;5039183;28;96762;-78
2021/05/08 05:50:31;;;;;;;;;;;;;;;13.39;43.05;101526.53;5037701;27;98989;-77
2021/05/08 05:52:56;;;;;;;;;;;;;;;13.09;43.26;101516.00;5035290;27;99277;-77
2021/05/08 05:55:24;;;;;;;;;;;;;;;13.07;43.30;101523.13;5038521;27;97178;-76
2021/05/08 05:57:50;;;;;;;;;;;;;;;12.92;43.52;101528.97;5035582;27;97723;-77
2021/05/08 06:00:17;;;;;;;;;;;;;;;13.04;43.48;101522.38;5039097;28;98994;-78
2021/05/08 06:02:43;;;;;;;;;;;;;;;12.61;44.47;101520.22;5025408;28;99076;-77
2021/05/08 06:05:09;;;;;;;;;;;;;;;12.31;44.81;101519.41;5041065;27;97597;-78
2021/05/08 06:07:35;;;;;;;;;;;;;;;12.72;43.91;101520.78;5042798;27;96936;-77
2021/05/08 06:10:00;;;;;;;;;;;;;;;12.96;43.71;101529.72;5035635;27;98959;-76
2021/05/08 06:12:27;;;;;;;;;;;;;;;13.32;43.08;101527.66;5045819;27;98791;-78
2021/05/08 06:14:53;;;;;;;;;;;;;;;13.28;42.95;101533.97;5050287;27;96840;-77
2021/05/08 06:17:19;;;;;;;;;;;;;;;14.14;42.01;101527.31;5043457;27;96780;-78
2021/05/08 06:19:44;;;;;;;;;;;;;;;13.30;43.53;101530.34;5044192;27;99091;-77
2021/05/08 06:22:10;;;;;;;;;;;;;;;14.32;41.19;101532.78;5042330;27;98815;-78
2021/05/08 06:24:36;;;;;;;;;;;;;;;14.81;40.19;101530.03;5048325;27;97824;-78
2021/05/08 06:27:02;;;;;;;;;;;;;;;14.52;40.09;101528.50;5050861;27;97012;-77
2021/05/08 06:29:29;;;;;;;;;;;;;;;14.98;39.99;101530.19;5051026;27;98879;-78
2021/05/08 06:31:55;;;;;;;;;;;;;;;14.49;40.65;101524.19;5044675;27;97813;-79
2021/05/08 06:34:21;;;;;;;;;;;;;;;14.17;41.02;101527.19;5042934;27;99053;-77
2021/05/08 06:36:47;;;;;;;;;;;;;;;15.08;39.60;101520.91;5045358;27;96933;-77
2021/05/08 06:39:12;;;;;;;;;;;;;;;15.36;39.13;101524.09;5043595;27;98937;-78
2021/05/08 06:41:38;;;;;;;;;;;;;;;15.43;37.99;101530.03;5051681;27;97932;-77
2021/05/08 06:44:04;;;;;;;;;;;;;;;15.08;38.80;101536.88;5051875;27;96907;-77
2021/05/08 06:46:31;;;;;;;;;;;;;;;14.61;39.96;101539.66;5048503;27;97044;-77
2021/05/08 06:48:57;;;;;;;;;;;;;;;15.50;38.34;101536.84;5051167;27;97837;-76
2021/05/08 06:51:22;;;;;;;;;;;;;;;15.12;38.19;101543.78;5053891;27;97760;-76
2021/05/08 06:53:48;;;;;;;;;;;;;;;15.14;38.27;101539.28;5052345;27;97727;-77
2021/05/08 06:56:14;;;;;;;;;;;;;;;14.26;39.59;101538.34;5044254;28;98268;-76
2021/05/08 06:58:40;;;;;;;;;;;;;;;14.80;38.99;101538.94;5038815;27;99469;-78
2021/05/08 07:01:06;;;;;;;;;;;;;;;15.32;37.79;101538.50;5038400;27;100959;-79
2021/05/08 07:03:33;;;;;;;;;;;;;;;15.74;36.63;101541.13;5038434;27;96750;-78
2021/05/08 07:05:59;;;;;;;;;;;;;;;15.85;36.60;101535.31;5047240;27;97712;-77
2021/05/08 07:08:25;;;;;;;;;;;;;;;16.38;35.44;101542.66;5038137;27;98547;-77
2021/05/08 07:10:51;;;;;;;;;;;;;;;16.14;35.54;101542.88;5047194;27;99326;-78
2021/05/08 07:13:17;;;;;;;;;;;;;;;16.11;35.96;101537.66;5038558;27;97548;-76
2021/05/08 07:15:43;;;;;;;;;;;;;;;16.11;35.62;101548.34;5046496;27;96846;-77
2021/05/08 07:18:09;;;;;;;;;;;;;;;15.94;35.59;101542.91;5044540;27;100343;-77
2021/05/08 07:20:38;;;;;;;;;;;;;;;16.26;35.52;101538.78;5032930;27;98852;-77
2021/05/08 07:23:04;;;;;;;;;;;;;;;16.22;35.62;101543.38;5037552;27;97071;-79
2021/05/08 07:25:31;;;;;;;;;;;;;;;16.08;36.14;101543.13;5040648;27;97132;-78
2021/05/08 07:28:07;;;;;;;;;;;;;;;16.58;34.42;101543.44;5038017;27;98818;-80
2021/05/08 07:30:33;;;;;;;;;;;;;;;15.83;34.87;101539.84;5038738;27;97383;-80
2021/05/08 07:32:58;;;;;;;;;;;;;;;16.39;34.77;101537.25;5039039;27;98217;-79
2021/05/08 07:35:24;;;;;;;;;;;;;;;16.67;34.48;101544.84;5032246;27;97012;-78
2021/05/08 07:37:51;;;;;;;;;;;;;;;16.67;33.97;101539.53;5037110;27;98923;-81
2021/05/08 07:40:16;;;;;;;;;;;;;;;16.55;33.99;101534.72;5038956;28;97820;-80
2021/05/08 07:42:42;;;;;;;;;;;;;;;16.34;33.74;101541.94;5042007;28;96711;-80
2021/05/08 07:45:10;;;;;;;;;;;;;;;16.65;32.58;101536.91;5043373;27;97235;-80
2021/05/08 07:47:36;;;;;;;;;;;;;;;16.43;33.41;101540.63;5042388;27;99355;-80
2021/05/08 07:50:03;;;;;;;;;;;;;;;16.60;33.22;101535.41;5035735;27;99070;-82
2021/05/08 07:52:28;;;;;;;;;;;;;;;16.14;34.24;101542.88;5044783;28;96781;-81
2021/05/08 07:54:56;;;;;;;;;;;;;;;16.67;33.50;101536.84;5048727;27;96759;-80
2021/05/08 07:57:22;;;;;;;;;;;;;;;17.33;32.14;101539.75;5011493;28;97768;-81
2021/05/08 07:59:48;;;;;;;;;;;;;;;16.49;33.79;101541.22;5003432;28;98854;-80
2021/05/08 08:02:14;;;;;;;;;;;;;;;16.87;32.88;101542.06;4997612;28;97468;-78
2021/05/08 08:04:40;;;;;;;;;;;;;;;16.76;33.49;101544.41;4997217;28;97262;-79
2021/05/08 08:07:06;;;;;;;;;;;;;;;17.07;32.83;101544.59;4996867;28;99546;-77
2021/05/08 08:09:32;;;;;;;;;;;;;;;16.94;32.98;101554.16;5013580;28;98232;-79
2021/05/08 08:11:58;;;;;;;;;;;;;;;17.48;32.69;101553.22;5004481;28;97557;-78
2021/05/08 08:14:24;;;;;;;;;;;;;;;17.42;33.13;101549.97;4999951;28;97138;-77
2021/05/08 08:16:50;;;;;;;;;;;;;;;17.36;31.99;101544.97;5001368;28;98902;-78
2021/05/08 08:19:17;;;;;;;;;;;;;;;16.86;32.61;101545.69;4993564;28;98916;-80
2021/05/08 08:21:43;;;;;;;;;;;;;;;16.12;33.63;101550.06;4997814;28;97203;-79
2021/05/08 08:24:09;;;;;;;;;;;;;;;16.43;33.66;101556.63;4997427;28;97140;-79
2021/05/08 08:26:35;;;;;;;;;;;;;;;16.66;32.33;101548.47;4999032;28;98856;-76
2021/05/08 08:29:02;;;;;;;;;;;;;;;16.57;32.65;101554.19;4992550;28;98853;-77
2021/05/08 08:31:28;;;;;;;;;;;;;;;17.09;31.33;101558.75;4992730;28;96896;-78
2021/05/08 08:33:54;;;;;;;;;;;;;;;17.62;31.18;101549.84;4990874;28;97376;-78
2021/05/08 08:36:20;;;;;;;;;;;;;;;17.50;31.22;101548.66;4995414;28;99076;-78
2021/05/08 08:38:45;;;;;;;;;;;;;;;17.23;30.69;101554.53;4993686;28;98771;-78
2021/05/08 08:41:11;;;;;;;;;;;;;;;17.05;31.06;101554.53;4992918;28;97481;-78
2021/05/08 08:43:38;;;;;;;;;;;;;;;17.10;30.63;101552.47;4989090;28;97527;-78
2021/05/08 08:46:04;;;;;;;;;;;;;;;17.16;30.60;101550.44;4994358;28;97883;-78
2021/05/08 08:48:30;;;;;;;;;;;;;;;17.17;30.33;101544.16;4992232;28;98770;-78
2021/05/08 08:50:56;;;;;;;;;;;;;;;16.91;30.04;101543.66;4993554;28;96863;-78
2021/05/08 08:53:22;;;;;;;;;;;;;;;16.31;30.58;101556.28;4990528;28;97413;-78
2021/05/08 08:55:51;;;;;;;;;;;;;;;16.45;30.31;101552.97;5006965;28;98861;-77
2021/05/08 08:58:17;;;;;;;;;;;;;;;17.20;28.79;101550.19;5029347;28;101313;-79
2021/05/08 09:00:43;;;;;;;;;;;;;;;17.09;28.41;101547.22;5032317;27;98649;-76
2021/05/08 09:03:09;;;;;;;;;;;;;;;18.05;27.45;101540.41;5033651;27;97547;-77
2021/05/08 09:05:35;;;;;;;;;;;;;;;17.95;27.71;101539.19;5036822;28;98149;-78
2021/05/08 09:08:04;;;;;;;;;;;;;;;17.24;28.98;101550.94;5035854;27;99173;-78
2021/05/08 09:10:31;;;;;;;;;;;;;;;17.53;28.63;101547.63;5033580;27;97277;-79
2021/05/08 09:12:58;;;;;;;;;;;;;;;17.91;28.07;101541.19;5034415;28;97846;-78
2021/05/08 09:15:31;;;;;;;;;;;;;;;18.10;27.88;101549.06;5035300;28;98960;-78
2021/05/08 09:17:57;;;;;;;;;;;;;;;16.93;27.82;101547.13;5036079;27;100371;-78
2021/05/08 09:20:24;;;;;;;;;;;;;;;16.99;28.92;101551.28;5035965;27;96697;-78
2021/05/08 09:22:51;;;;;;;;;;;;;;;17.05;28.33;101551.00;5037244;27;97035;-79
2021/05/08 09:25:17;;;;;;;;;;;;;;;17.37;28.39;101546.69;5036044;27;99067;-77
2021/05/08 09:27:47;;;;;;;;;;;;;;;17.60;28.25;101541.00;5036541;27;101220;-77
2021/05/08 09:30:15;;;;;;;;;;;;;;;17.09;28.15;101545.41;5036321;27;96690;-78
2021/05/08 09:32:41;;;;;;;;;;;;;;;17.43;27.78;101547.25;5039578;27;96930;-76
2021/05/08 09:35:09;;;;;;;;;;;;;;;17.59;28.34;101543.78;5034770;28;98852;-78
2021/05/08 09:37:36;;;;;;;;;;;;;;;17.88;27.98;101541.31;5034733;27;99277;-78
2021/05/08 09:40:18;;;;;;;;;;;;;;;17.85;27.57;101540.66;5036624;27;96664;-77
2021/05/08 09:42:47;;;;;;;;;;;;;;;17.29;27.60;101544.41;5036994;27;97710;-77
2021/05/08 09:45:14;;;;;;;;;;;;;;;17.06;28.21;101539.38;5029647;27;98899;-80
2021/05/08 09:47:40;;;;;;;;;;;;;;;17.69;28.15;101537.91;5029075;27;98467;-78
2021/05/08 09:50:06;;;;;;;;;;;;;;;17.65;27.67;101536.34;5025447;27;97833;-78
2021/05/08 09:52:46;;;;;;;;;;;;;;;17.73;28.23;101534.13;5034746;27;98296;-77
2021/05/08 09:55:12;;;;;;;;;;;;;;;18.19;26.44;101524.47;5031211;27;98934;-79
2021/05/08 09:57:38;;;;;;;;;;;;;;;18.24;26.71;101521.56;5032063;27;98879;-77
2021/05/08 10:00:05;;;;;;;;;;;;;;;18.50;26.08;101518.31;5029232;27;97136;-75
2021/05/08 10:02:32;;;;;;;;;;;;;;;18.15;27.11;101519.41;5027877;27;97208;-78
2021/05/08 10:04:59;;;;;;;;;;;;;;;18.06;27.37;101515.41;5031212;27;98424;-78
2021/05/08 10:07:27;;;;;;;;;;;;;;;18.04;27.39;101511.09;5032709;28;99274;-78
2021/05/08 10:09:56;;;;;;;;;;;;;;;18.96;26.47;101513.03;5033674;27;97423;-77
2021/05/08 10:12:23;;;;;;;;;;;;;;;18.18;27.97;101509.38;5033355;27;97030;-77
2021/05/08 10:14:49;;;;;;;;;;;;;;;17.78;28.20;101500.00;5035612;27;97850;-77
2021/05/08 10:17:17;;;;;;;;;;;;;;;17.47;28.65;101514.06;5032406;27;99212;-78
2021/05/08 10:19:45;;;;;;;;;;;;;;;17.42;28.22;101518.78;5026651;27;97959;-78
2021/05/08 10:22:11;;;;;;;;;;;;;;;17.92;27.90;101518.81;5029640;27;98247;-79
2021/05/08 10:24:39;;;;;;;;;;;;;;;17.89;27.67;101508.31;5036527;27;98877;-78
2021/05/08 10:27:07;;;;;;;;;;;;;;;16.99;28.21;101509.44;5029902;27;98849;-78
2021/05/08 10:29:33;;;;;;;;;;;;;;;17.83;27.67;101508.63;5033189;27;97671;-78
2021/05/08 10:32:00;;;;;;;;;;;;;;;17.76;27.91;101509.91;5037248;27;97280;-79
2021/05/08 10:34:30;;;;;;;;;;;;;;;17.25;29.17;101515.28;5033254;27;98957;-78
2021/05/08 10:37:04;;;;;;;;;;;;;;;17.36;28.36;101507.56;5032068;28;98961;-78
2021/05/08 10:39:45;;;;;;;;;;;;;;;18.06;27.67;101507.38;5036319;27;96952;-78
2021/05/08 10:42:13;;;;;;;;;;;;;;;17.57;28.01;101516.28;5030674;27;97251;-78
2021/05/08 10:44:42;;;;;;;;;;;;;;;17.82;27.47;101506.03;5038167;27;97479;-79
2021/05/08 10:47:13;;;;;;;;;;;;;;;18.05;27.24;101497.63;5033817;27;99051;-80
2021/05/08 10:49:40;;;;;;;;;;;;;;;17.86;27.40;101496.91;5034336;27;96863;-78
2021/05/08 10:52:06;;;;;;;;;;;;;;;17.29;28.02;101500.81;5032791;27;96838;-80
2021/05/08 10:54:50;;;;;;;;;;;;;;;17.00;29.26;101505.81;5033164;27;99243;-79
2021/05/08 10:57:18;;;;;;;;;;;;;;;17.45;28.71;101496.41;5022963;28;98979;-77
2021/05/08 11:00:05;;;;;;;;;;;;;;;17.09;28.61;101496.47;5032676;27;97017;-77
2021/05/08 11:02:49;;;;;;;;;;;;;;;17.39;28.55;101497.56;5015809;27;97935;-78
2021/05/08 11:05:21;;;;;;;;;;;;;;;17.08;28.80;101495.59;5027150;28;101148;-78
2021/05/08 11:07:47;;;;;;;;;;;;;;;17.60;28.05;101492.91;5036743;27;99389;-78
2021/05/08 11:10:31;;;;;;;;;;;;;;;18.24;27.23;101482.31;5043478;27;96702;-77
2021/05/08 11:13:09;;;;;;;;;;;;;;;18.49;27.22;101481.78;5036447;27;97245;-78
2021/05/08 11:15:54;;;;;;;;;;;;;;;18.42;27.51;101479.53;5053476;27;98458;-77
2021/05/08 11:18:35;;;;;;;;;;;;;;;18.67;26.33;101477.22;5054026;27;97991;-76
2021/05/08 11:21:02;;;;;;;;;;;;;;;18.11;27.45;101469.72;5051104;28;96663;-77
2021/05/08 11:23:40;;;;;;;;;;;;;;;18.33;26.71;101473.75;5055899;27;96517;-77
2021/05/08 11:26:33;;;;;;;;;;;;;;;17.58;27.28;101476.13;5046508;28;98034;-78
2021/05/08 11:29:00;;;;;;;;;;;;;;;17.95;27.02;101474.16;5044916;27;98928;-78
2021/05/08 11:31:26;;;;;;;;;;;;;;;18.17;26.99;101466.69;5043284;27;97105;-79
2021/05/08 11:33:52;;;;;;;;;;;;;;;17.64;27.67;101466.94;5046862;28;97074;-77
2021/05/08 11:36:18;;;;;;;;;;;;;;;17.65;27.55;101466.00;5043875;27;97844;-77
2021/05/08 11:38:44;;;;;;;;;;;;;;;17.59;27.69;101460.94;5033644;27;98828;-78
2021/05/08 11:41:20;;;;;;;;;;;;;;;17.90;27.47;101453.91;5034310;27;97084;-77
2021/05/08 11:43:51;;;;;;;;;;;;;;;17.51;27.99;101459.53;5033025;27;97208;-78
2021/05/08 11:46:21;;;;;;;;;;;;;;;17.65;27.89;101450.81;5034916;27;99348;-78
2021/05/08 11:48:48;;;;;;;;;;;;;;;17.72;28.05;101446.00;5034837;27;99566;-79
2021/05/08 11:51:14;;;;;;;;;;;;;;;17.74;28.40;101444.97;5036030;27;97069;-78
2021/05/08 11:53:40;;;;;;;;;;;;;;;17.50;26.79;101446.25;5036857;27;98927;-78
2021/05/08 11:56:06;;;;;;;;;;;;;;;17.88;26.11;101442.41;5037526;27;99334;-79
2021/05/08 11:58:32;;;;;;;;;;;;;;;18.05;26.44;101432.59;5037120;27;98901;-79
2021/05/08 12:00:57;;;;;;;;;;;;;;;18.15;26.22;101433.81;5039362;27;97151;-78
2021/05/08 12:03:25;;;;;;;;;;;;;;;17.26;26.86;101434.19;5037197;27;96812;-78
2021/05/08 12:05:51;;;;;;;;;;;;;;;17.52;26.85;101429.19;5039997;27;100200;-78
2021/05/08 12:08:18;;;;;;;;;;;;;;;17.77;26.75;101427.91;5042917;27;97618;-78
2021/05/08 12:10:45;;;;;;;;;;;;;;;18.32;26.18;101431.91;5043552;27;96869;-78
2021/05/08 12:13:11;;;;;;;;;;;;;;;17.91;26.15;101420.00;5041463;27;97518;-78
2021/05/08 12:15:38;;;;;;;;;;;;;;;18.68;25.49;101420.06;5043266;27;99205;-78
2021/05/08 12:18:04;;;;;;;;;;;;;;;18.97;25.21;101421.03;5041458;27;98820;-79
2021/05/08 12:20:31;;;;;;;;;;;;;;;19.22;25.18;101421.28;5041790;27;96820;-77
2021/05/08 12:23:00;;;;;;;;;;;;;;;19.18;25.35;101422.41;5036175;27;96927;-78
2021/05/08 12:25:27;;;;;;;;;;;;;;;19.02;25.15;101419.81;5035565;27;99607;-79
2021/05/08 12:28:07;;;;;;;;;;;;;;;18.99;25.57;101411.06;5036445;27;98954;-78
2021/05/08 12:30:33;;;;;;;;;;;;;;;19.02;25.90;101418.94;5035328;27;98005;-77
2021/05/08 12:32:59;;;;;;;;;;;;;;;18.93;25.42;101411.44;5039761;27;97562;-78
2021/05/08 12:35:25;;;;;;;;;;;;;;;19.21;25.91;101411.50;5041402;27;97801;-79
2021/05/08 12:37:52;;;;;;;;;;;;;;;19.10;25.70;101409.47;5042438;27;99722;-79